createdAt,value
2019-01-04T00:00:40.525Z,5.95
2019-01-04T00:03:09.777Z,5.96
2019-01-04T00:05:39.120Z,5.97
2019-01-04T00:08:08.512Z,5.94
2019-01-04T00:10:37.870Z,5.92
2019-01-04T00:13:07.322Z,5.91
2019-01-04T00:15:36.254Z,5.90
2019-01-04T00:18:05.170Z,5.89
2019-01-04T00:20:35.038Z,5.91
2019-01-04T00:23:04.596Z,5.93
2019-01-04T00:25:33.524Z,5.97
2019-01-04T00:28:02.521Z,5.99
2019-01-04T00:30:31.775Z,6.02
2019-01-04T00:33:00.764Z,6.04
2019-01-04T00:35:29.776Z,6.03
2019-01-04T00:37:59.513Z,6.02
2019-01-04T00:40:28.822Z,5.99
2019-01-04T00:42:58.819Z,5.95
2019-01-04T00:45:28.154Z,5.90
2019-01-04T00:47:57.597Z,5.87
2019-01-04T00:50:27.164Z,5.86
2019-01-04T00:52:56.447Z,5.84
2019-01-04T00:56:05.470Z,5.82
2019-01-04T00:59:15.169Z,5.80
2019-01-04T01:02:22.524Z,5.56
2019-01-04T01:05:26.576Z,5.62
2019-01-04T01:08:24.792Z,5.54
2019-01-04T01:11:28.460Z,5.53
2019-01-04T01:14:45.244Z,5.54
2019-01-04T01:17:54.401Z,5.53
2019-01-04T01:21:07.526Z,5.46
2019-01-04T01:24:14.709Z,5.42
2019-01-04T01:26:59.452Z,5.37
2019-01-04T01:29:56.072Z,5.33
2019-01-04T01:32:50.441Z,5.34
2019-01-04T01:35:49.852Z,5.34
2019-01-04T01:39:06.862Z,5.33
2019-01-04T01:42:05.755Z,5.34
2019-01-04T01:45:11.879Z,5.31
2019-01-04T01:47:51.421Z,5.26
2019-01-04T01:50:55.641Z,5.28
2019-01-04T01:53:35.933Z,5.36
2019-01-04T01:56:04.863Z,5.41
2019-01-04T01:58:34.064Z,5.45
2019-01-04T02:01:03.597Z,5.50
2019-01-04T02:03:33.266Z,5.53
2019-01-04T02:06:02.357Z,5.57
2019-01-04T02:08:32.540Z,5.59
2019-01-04T02:11:01.880Z,5.60
2019-01-04T02:13:31.192Z,5.61
2019-01-04T02:16:00.432Z,5.60
2019-01-04T02:18:30.140Z,5.59
2019-01-04T02:20:59.393Z,5.58
2019-01-04T02:23:29.052Z,5.57
2019-01-04T02:25:58.570Z,5.58
2019-01-04T02:28:28.105Z,5.56
2019-01-04T02:30:57.345Z,5.53
2019-01-04T02:33:26.559Z,5.49
2019-01-04T02:35:55.978Z,5.49
2019-01-04T02:38:24.848Z,5.47
2019-01-04T02:40:54.113Z,5.46
2019-01-04T02:43:23.256Z,5.44
2019-01-04T02:45:52.743Z,5.40
2019-01-04T02:48:22.025Z,5.37
2019-01-04T02:50:50.869Z,5.35
2019-01-04T02:53:20.049Z,5.34
2019-01-04T02:55:49.460Z,5.34
2019-01-04T02:58:18.961Z,5.35
2019-01-04T03:00:48.591Z,5.37
2019-01-04T03:03:17.476Z,5.36
2019-01-04T03:05:46.723Z,5.37
2019-01-04T03:08:15.988Z,5.35
2019-01-04T03:10:44.878Z,5.35
2019-01-04T03:13:14.367Z,5.37
2019-01-04T03:15:43.587Z,5.36
2019-01-04T03:18:13.064Z,5.34
2019-01-04T03:20:42.568Z,5.34
2019-01-04T03:23:11.779Z,5.33
2019-01-04T03:25:40.966Z,5.32
2019-01-04T03:28:10.477Z,5.32
2019-01-04T03:30:39.899Z,5.32
2019-01-04T03:33:09.239Z,5.34
2019-01-04T03:35:38.447Z,5.34
2019-01-04T03:38:07.929Z,5.32
2019-01-04T03:40:37.492Z,5.31
2019-01-04T03:43:07.049Z,5.30
2019-01-04T03:45:36.499Z,5.31
2019-01-04T03:48:05.595Z,5.30
2019-01-04T03:50:35.448Z,5.31
2019-01-04T03:53:04.392Z,5.30
2019-01-04T03:55:33.307Z,5.33
2019-01-04T03:58:02.237Z,5.32
2019-01-04T04:00:32.353Z,5.33
2019-01-04T04:03:01.627Z,5.28
2019-01-04T04:05:30.706Z,5.27
2019-01-04T04:07:59.956Z,5.28
2019-01-04T04:10:28.875Z,5.29
2019-01-04T04:12:58.087Z,5.30
2019-01-04T04:15:28.021Z,5.31
2019-01-04T04:17:57.531Z,5.30
2019-01-04T04:20:26.634Z,5.28
2019-01-04T04:22:55.562Z,5.28
2019-01-04T04:25:24.688Z,5.30
2019-01-04T04:27:57.269Z,5.31
2019-01-04T04:30:27.040Z,5.30
2019-01-04T04:32:56.529Z,5.30
2019-01-04T04:35:26.264Z,5.30
2019-01-04T04:37:55.309Z,5.31
2019-01-04T04:40:24.524Z,5.33
2019-01-04T04:42:53.380Z,5.33
2019-01-04T04:45:23.012Z,5.31
2019-01-04T04:47:52.658Z,5.26
2019-01-04T04:50:22.373Z,5.22
2019-01-04T04:52:52.174Z,5.18
2019-01-04T04:55:21.444Z,5.18
2019-01-04T04:57:50.690Z,5.20
2019-01-04T05:00:19.698Z,5.21
2019-01-04T05:02:48.880Z,5.25
2019-01-04T05:05:18.136Z,5.27
2019-01-04T05:07:47.878Z,5.30
2019-01-04T05:10:17.051Z,5.34
2019-01-04T05:12:45.912Z,5.35
2019-01-04T05:15:15.146Z,5.34
2019-01-04T05:17:44.329Z,5.32
2019-01-04T05:20:13.179Z,5.32
2019-01-04T05:22:43.195Z,5.30
2019-01-04T05:25:12.163Z,5.27
2019-01-04T05:27:41.393Z,5.28
2019-01-04T05:30:10.660Z,5.27
2019-01-04T05:32:39.509Z,5.27
2019-01-04T05:35:08.834Z,5.27
2019-01-04T05:37:38.749Z,5.27
2019-01-04T05:40:08.576Z,5.25
2019-01-04T05:42:38.067Z,5.23
2019-01-04T05:45:07.492Z,5.22
2019-01-04T05:47:36.977Z,5.23
2019-01-04T05:50:07.203Z,5.23
2019-01-04T05:52:36.817Z,5.21
2019-01-04T05:55:06.777Z,5.22
2019-01-04T05:57:35.927Z,5.23
2019-01-04T06:00:05.682Z,5.23
2019-01-04T06:02:34.770Z,5.18
2019-01-04T06:05:04.300Z,5.13
2019-01-04T06:07:33.502Z,5.05
2019-01-04T06:10:02.695Z,4.98
2019-01-04T06:12:32.349Z,4.95
2019-01-04T06:15:01.536Z,4.93
2019-01-04T06:17:31.057Z,4.95
2019-01-04T06:20:00.720Z,4.97
2019-01-04T06:22:29.919Z,4.99
2019-01-04T06:24:58.965Z,5.03
2019-01-04T06:27:28.229Z,5.07
2019-01-04T06:29:57.148Z,5.11
2019-01-04T06:32:26.672Z,5.12
2019-01-04T06:34:56.698Z,5.13
2019-01-04T06:37:26.186Z,5.15
2019-01-04T06:39:55.540Z,5.15
2019-01-04T06:42:24.491Z,5.17
2019-01-04T06:44:53.717Z,5.15
2019-01-04T06:47:23.077Z,5.13
2019-01-04T06:49:52.594Z,5.10
2019-01-04T06:52:22.729Z,5.10
2019-01-04T06:55:39.132Z,5.11
2019-01-04T06:58:08.476Z,5.13
2019-01-04T07:00:38.164Z,5.06
2019-01-04T07:03:07.637Z,5.08
2019-01-04T07:05:37.132Z,5.09
2019-01-04T07:08:06.639Z,5.09
2019-01-04T07:10:36.251Z,5.10
2019-01-04T07:13:05.614Z,5.10
2019-01-04T07:15:34.827Z,5.12
2019-01-04T07:18:03.840Z,5.11
2019-01-04T07:20:32.945Z,5.13
2019-01-04T07:23:02.200Z,5.13
2019-01-04T07:25:32.108Z,5.12
2019-01-04T07:28:01.058Z,5.10
2019-01-04T07:30:30.394Z,5.08
2019-01-04T07:33:01.196Z,5.07
2019-01-04T07:35:30.635Z,5.04
2019-01-04T07:37:59.870Z,5.02
2019-01-04T07:40:28.988Z,5.02
2019-01-04T07:42:58.214Z,5.02
2019-01-04T07:45:27.700Z,5.05
2019-01-04T07:47:57.198Z,5.07
2019-01-04T07:50:26.537Z,5.11
2019-01-04T07:52:55.874Z,5.13
2019-01-04T07:55:25.297Z,5.11
2019-01-04T07:57:54.964Z,5.09
2019-01-04T08:00:24.204Z,5.09
2019-01-04T08:02:54.723Z,5.13
2019-01-04T08:05:30.004Z,5.19
2019-01-04T08:08:00.430Z,5.25
2019-01-04T08:10:29.325Z,5.33
2019-01-04T08:13:00.622Z,5.38
2019-01-04T08:15:29.465Z,5.42
2019-01-04T08:17:58.308Z,5.50
2019-01-04T08:20:27.170Z,5.55
2019-01-04T08:22:56.042Z,5.59
2019-01-04T08:25:25.321Z,5.58
2019-01-04T08:27:54.239Z,5.54
2019-01-04T08:30:23.296Z,5.54
2019-01-04T08:32:52.597Z,5.54
2019-01-04T08:35:21.440Z,5.56
2019-01-04T08:37:50.995Z,5.60
2019-01-04T08:40:19.841Z,5.62
2019-01-04T08:42:49.328Z,5.67
2019-01-04T08:45:19.156Z,5.69
2019-01-04T08:47:48.437Z,5.71
2019-01-04T08:50:17.744Z,5.75
2019-01-04T08:52:46.660Z,5.81
2019-01-04T08:55:24.869Z,5.84
2019-01-04T08:57:53.800Z,5.83
2019-01-04T09:00:22.722Z,5.79
2019-01-04T09:02:52.607Z,5.80
2019-01-04T09:05:22.313Z,5.84
2019-01-04T09:07:51.800Z,5.85
2019-01-04T09:10:21.644Z,5.87
2019-01-04T09:12:51.181Z,5.90
2019-01-04T09:15:20.461Z,5.94
2019-01-04T09:17:49.656Z,5.96
2019-01-04T09:20:18.837Z,6.01
2019-01-04T09:22:47.779Z,6.05
2019-01-04T09:25:16.771Z,6.09
2019-01-04T09:27:45.663Z,6.13
2019-01-04T09:30:15.636Z,6.17
2019-01-04T09:32:44.618Z,6.21
2019-01-04T09:35:13.613Z,6.20
2019-01-04T09:37:43.154Z,6.18
2019-01-04T09:40:13.186Z,5.94
2019-01-04T09:42:44.737Z,6.17
2019-01-04T09:45:13.593Z,6.18
2019-01-04T09:47:42.860Z,6.09
2019-01-04T09:50:12.316Z,6.06
2019-01-04T09:52:41.823Z,6.07
2019-01-04T09:55:10.814Z,6.09
2019-01-04T09:57:39.993Z,6.05
2019-01-04T10:00:11.574Z,6.04
2019-01-04T10:02:40.783Z,6.07
2019-01-04T10:05:10.686Z,6.14
2019-01-04T10:07:39.602Z,6.19
2019-01-04T10:10:10.992Z,6.20
2019-01-04T10:12:40.296Z,6.21
2019-01-04T10:15:12.007Z,6.26
2019-01-04T10:17:42.142Z,6.29
2019-01-04T10:20:11.257Z,6.38
2019-01-04T10:22:40.562Z,6.34
2019-01-04T10:25:10.072Z,6.39
2019-01-04T10:27:39.389Z,6.44
2019-01-04T10:30:09.864Z,6.54
2019-01-04T10:32:39.047Z,6.64
2019-01-04T10:35:10.633Z,6.75
2019-01-04T10:37:39.585Z,6.88
2019-01-04T10:40:11.118Z,6.96
2019-01-04T10:42:39.932Z,6.95
2019-01-04T10:45:09.256Z,6.92
2019-01-04T10:47:38.996Z,6.90
2019-01-04T10:50:08.240Z,6.90
2019-01-04T10:52:37.750Z,6.92
2019-01-04T10:55:07.154Z,6.92
2019-01-04T10:57:36.257Z,6.91
2019-01-04T11:00:06.658Z,6.88
2019-01-04T11:02:36.084Z,6.87
2019-01-04T11:05:05.111Z,6.88
2019-01-04T11:07:34.274Z,6.92
2019-01-04T11:10:03.396Z,6.96
2019-01-04T11:12:32.571Z,6.97
2019-01-04T11:15:01.767Z,7.04
2019-01-04T11:17:30.758Z,7.07
2019-01-04T11:20:00.576Z,7.12
2019-01-04T11:22:51.896Z,7.17
2019-01-04T11:25:56.125Z,7.25
2019-01-04T11:28:30.355Z,7.29
2019-01-04T11:31:16.192Z,7.40
2019-01-04T11:34:10.101Z,7.45
2019-01-04T11:36:54.393Z,7.45
2019-01-04T11:39:59.389Z,7.40
2019-01-04T11:43:15.173Z,7.43
2019-01-04T11:46:52.521Z,7.50
2019-01-04T11:49:57.224Z,7.55
2019-01-04T11:52:34.908Z,7.54
2019-01-04T11:55:04.176Z,7.49
2019-01-04T11:57:33.860Z,7.44
2019-01-04T12:00:02.863Z,7.48
2019-01-04T12:02:32.093Z,7.50
2019-01-04T12:05:02.193Z,7.53
2019-01-04T12:07:31.535Z,7.58
2019-01-04T12:10:00.730Z,7.63
2019-01-04T12:12:30.254Z,7.63
2019-01-04T12:14:59.436Z,7.66
2019-01-04T12:17:28.639Z,7.69
2019-01-04T12:19:57.756Z,7.70
2019-01-04T12:22:27.027Z,7.69
2019-01-04T12:24:55.882Z,7.71
2019-01-04T12:27:25.129Z,7.77
2019-01-04T12:29:54.326Z,7.83
2019-01-04T12:32:23.917Z,7.87
2019-01-04T12:34:52.864Z,7.89
2019-01-04T12:37:22.328Z,7.93
2019-01-04T12:39:51.510Z,7.95
2019-01-04T12:42:20.670Z,7.94
2019-01-04T12:44:49.588Z,7.92
2019-01-04T12:47:19.036Z,7.94
2019-01-04T12:49:48.802Z,7.94
2019-01-04T12:52:17.851Z,7.95
2019-01-04T12:54:47.541Z,7.92
2019-01-04T12:57:16.742Z,7.94
2019-01-04T12:59:46.157Z,7.91
2019-01-04T13:02:15.060Z,7.88
2019-01-04T13:04:44.545Z,7.84
2019-01-04T13:07:13.598Z,7.84
2019-01-04T13:09:42.533Z,7.83
2019-01-04T13:12:12.354Z,7.84
2019-01-04T13:14:41.748Z,7.86
2019-01-04T13:17:10.727Z,7.85
2019-01-04T13:19:39.857Z,7.82
2019-01-04T13:22:09.588Z,7.82
2019-01-04T13:24:38.866Z,7.83
2019-01-04T13:27:08.190Z,7.84
2019-01-04T13:29:37.562Z,7.85
2019-01-04T13:32:06.573Z,7.89
2019-01-04T13:34:35.849Z,7.84
2019-01-04T13:37:05.460Z,7.83
2019-01-04T13:39:34.749Z,7.83
2019-01-04T13:42:04.265Z,7.86
2019-01-04T13:44:33.185Z,7.86
2019-01-04T13:47:02.105Z,7.88
2019-01-04T13:49:31.670Z,7.87
2019-01-04T13:52:00.584Z,7.90
2019-01-04T13:54:30.257Z,7.89
2019-01-04T13:56:59.108Z,7.89
2019-01-04T13:59:27.968Z,7.86
2019-01-04T14:01:57.449Z,7.81
2019-01-04T14:04:26.649Z,7.81
2019-01-04T14:06:55.840Z,7.82
2019-01-04T14:09:25.242Z,7.83
2019-01-04T14:11:54.100Z,7.84
2019-01-04T14:14:23.436Z,7.80
2019-01-04T14:16:52.282Z,7.74
2019-01-04T14:19:21.145Z,7.68
2019-01-04T14:21:50.338Z,7.64
2019-01-04T14:24:19.516Z,7.61
2019-01-04T14:26:49.337Z,7.60
2019-01-04T14:29:18.605Z,7.59
2019-01-04T14:31:47.848Z,7.53
2019-01-04T14:34:17.463Z,7.51
2019-01-04T14:36:46.922Z,7.51
2019-01-04T14:39:15.761Z,7.49
2019-01-04T14:41:44.760Z,7.47
2019-01-04T14:44:14.361Z,7.44
2019-01-04T14:46:43.740Z,7.44
2019-01-04T14:49:12.718Z,7.47
2019-01-04T14:51:42.155Z,7.49
2019-01-04T14:54:11.337Z,7.48
2019-01-04T14:56:40.267Z,7.51
2019-01-04T14:59:10.094Z,7.52
2019-01-04T15:01:40.297Z,7.55
2019-01-04T15:04:11.348Z,7.52
2019-01-04T15:06:43.046Z,7.48
2019-01-04T15:09:13.228Z,7.47
2019-01-04T15:11:42.388Z,7.48
2019-01-04T15:14:11.365Z,7.47
2019-01-04T15:16:41.557Z,7.47
2019-01-04T15:19:11.417Z,7.46
2019-01-04T15:21:41.184Z,7.48
2019-01-04T15:24:10.130Z,7.48
2019-01-04T15:26:39.644Z,7.47
2019-01-04T15:29:08.744Z,7.45
2019-01-04T15:31:38.027Z,7.43
2019-01-04T15:34:07.101Z,7.39
2019-01-04T15:36:36.406Z,7.40
2019-01-04T15:39:08.255Z,7.39
2019-01-04T15:41:37.428Z,7.39
2019-01-04T15:44:07.176Z,7.42
2019-01-04T15:46:36.253Z,7.41
2019-01-04T15:49:06.475Z,7.43
2019-01-04T15:51:35.432Z,7.39
2019-01-04T15:54:04.450Z,7.40
2019-01-04T15:56:33.596Z,7.37
2019-01-04T15:59:03.349Z,7.28
2019-01-04T16:01:32.310Z,7.24
2019-01-04T16:04:01.536Z,7.24
2019-01-04T16:06:30.834Z,7.19
2019-01-04T16:09:00.353Z,7.20
2019-01-04T16:11:29.636Z,7.31
2019-01-04T16:13:58.908Z,7.20
2019-01-04T16:16:28.109Z,7.21
2019-01-04T16:18:57.428Z,7.20
2019-01-04T16:21:26.300Z,7.22
2019-01-04T16:23:55.810Z,7.29
2019-01-04T16:26:25.312Z,7.27
2019-01-04T16:28:54.582Z,7.28
2019-01-04T16:31:24.146Z,7.24
2019-01-04T16:33:53.037Z,7.24
2019-01-04T16:36:22.346Z,7.24
2019-01-04T16:38:51.721Z,7.25
2019-01-04T16:41:20.981Z,7.28
2019-01-04T16:43:55.492Z,7.32
2019-01-04T16:46:25.243Z,7.32
2019-01-04T16:48:54.880Z,7.32
2019-01-04T16:51:23.900Z,7.32
2019-01-04T16:53:52.752Z,7.33
2019-01-04T16:56:22.254Z,7.35
2019-01-04T16:58:52.423Z,7.33
2019-01-04T17:01:21.351Z,7.36
2019-01-04T17:03:50.273Z,7.38
2019-01-04T17:06:19.552Z,7.37
2019-01-04T17:08:49.078Z,7.41
2019-01-04T17:11:18.370Z,7.43
2019-01-04T17:13:47.573Z,7.43
2019-01-04T17:16:16.763Z,7.45
2019-01-04T17:18:46.500Z,7.44
2019-01-04T17:21:16.105Z,7.45
2019-01-04T17:23:45.842Z,7.48
2019-01-04T17:26:14.758Z,7.48
2019-01-04T17:31:51.393Z,7.50
2019-01-04T17:40:04.313Z,7.49
2019-01-04T17:42:52.677Z,7.48
2019-01-04T17:45:40.999Z,7.46
2019-01-04T17:48:29.040Z,7.46
2019-01-04T17:56:48.188Z,7.44
2019-01-04T17:59:17.589Z,7.45
2019-01-04T18:01:46.443Z,7.45
2019-01-04T18:04:34.810Z,7.45
2019-01-04T18:07:23.074Z,7.47
2019-01-04T18:12:59.678Z,7.50
2019-01-04T18:15:47.905Z,7.55
2019-01-04T18:18:17.416Z,7.53
2019-01-04T18:21:05.372Z,7.52
2019-01-04T18:23:53.938Z,7.53
2019-01-04T18:26:41.913Z,7.53
2019-01-04T18:29:30.921Z,7.53
2019-01-04T18:32:00.016Z,7.53
2019-01-04T18:34:29.111Z,7.52
2019-01-04T18:36:58.402Z,7.55
2019-01-04T18:42:22.025Z,7.51
2019-01-04T18:44:50.951Z,7.52
2019-01-04T18:47:20.099Z,7.58
2019-01-04T18:49:49.290Z,7.57
2019-01-04T18:52:37.513Z,7.58
2019-01-04T18:55:06.521Z,7.59
2019-01-04T19:00:42.715Z,7.65
2019-01-04T19:03:30.942Z,7.68
2019-01-04T19:06:00.159Z,7.68
2019-01-04T19:08:48.532Z,7.66
2019-01-04T19:11:17.708Z,7.66
2019-01-04T19:13:46.906Z,7.67
2019-01-04T19:16:15.759Z,7.69
2019-01-04T19:18:45.404Z,7.71
2019-01-04T19:21:14.605Z,7.73
2019-01-04T19:23:44.034Z,7.76
2019-01-04T19:26:12.881Z,7.76
2019-01-04T19:28:42.361Z,7.76
2019-01-04T19:31:11.546Z,7.77
2019-01-04T19:33:40.399Z,7.77
2019-01-04T19:36:09.329Z,7.81
2019-01-04T19:38:39.036Z,7.78
2019-01-04T19:41:27.190Z,7.77
2019-01-04T19:43:56.322Z,7.72
2019-01-04T19:46:44.284Z,7.73
2019-01-04T19:49:13.785Z,7.73
2019-01-04T19:51:42.729Z,7.76
2019-01-04T19:54:11.873Z,7.78
2019-01-04T19:56:41.029Z,7.77
2019-01-04T19:59:10.628Z,7.77
2019-01-04T20:01:40.289Z,7.79
2019-01-04T20:04:09.290Z,7.79
2019-01-04T20:07:35.428Z,7.79
2019-01-04T20:11:01.547Z,7.80
2019-01-04T20:14:27.944Z,7.78
2019-01-04T20:17:16.235Z,7.76
2019-01-04T20:20:08.332Z,7.74
2019-01-04T20:23:15.619Z,7.78
2019-01-04T20:26:22.716Z,7.83
2019-01-04T20:29:11.469Z,7.84
2019-01-04T20:32:18.616Z,7.87
2019-01-04T20:35:26.277Z,7.84
2019-01-04T20:38:33.307Z,7.87
2019-01-04T20:41:40.621Z,7.89
2019-01-04T20:44:29.037Z,7.91
2019-01-04T20:47:16.850Z,7.90
2019-01-04T20:50:24.229Z,7.90
2019-01-04T20:53:12.939Z,7.92
2019-01-04T20:56:21.924Z,7.93
2019-01-04T20:59:30.605Z,7.94
2019-01-04T21:02:18.519Z,7.93
2019-01-04T21:05:06.877Z,7.92
2019-01-04T21:07:55.095Z,7.94
2019-01-04T21:10:43.399Z,7.93
2019-01-04T21:13:50.608Z,7.91
2019-01-04T21:16:58.142Z,7.94
2019-01-04T21:20:05.785Z,7.98
2019-01-04T21:22:54.300Z,7.99
2019-01-04T21:26:01.323Z,8.03
2019-01-04T21:29:08.646Z,8.05
2019-01-04T21:31:57.114Z,8.07
2019-01-04T21:34:45.396Z,8.04
2019-01-04T21:37:33.227Z,8.06
2019-01-04T21:43:30.638Z,8.09
2019-01-04T21:46:39.567Z,8.06
2019-01-04T21:49:30.015Z,8.05
2019-01-04T21:52:17.976Z,8.07
2019-01-04T21:55:05.794Z,8.07
2019-01-04T21:57:53.946Z,8.04
2019-01-04T22:04:01.653Z,8.05
2019-01-04T22:06:49.641Z,8.05
2019-01-04T22:09:58.352Z,8.08
2019-01-04T22:12:46.198Z,8.09
2019-01-04T22:15:53.456Z,8.04
2019-01-04T22:19:01.037Z,8.03
2019-01-04T22:21:48.855Z,8.08
2019-01-04T22:24:56.238Z,8.09
2019-01-04T22:27:36.094Z,8.10
2019-01-04T22:30:43.913Z,8.14
2019-01-04T22:33:31.979Z,8.16
2019-01-04T22:36:20.150Z,8.15
2019-01-04T22:39:08.579Z,8.16
2019-01-04T22:41:57.269Z,8.17
2019-01-04T22:45:04.304Z,8.17
2019-01-04T22:47:52.379Z,8.19
2019-01-04T22:50:40.582Z,8.18
2019-01-04T22:53:48.157Z,8.15
2019-01-04T22:56:36.819Z,8.12
2019-01-04T22:59:25.217Z,8.11
2019-01-04T23:02:32.544Z,8.10
2019-01-04T23:05:20.378Z,8.08
2019-01-04T23:08:08.196Z,8.10
2019-01-04T23:11:15.758Z,8.10
2019-01-04T23:14:04.209Z,8.08
2019-01-04T23:16:52.704Z,8.09
2019-01-04T23:19:40.519Z,8.10
2019-01-04T23:22:51.487Z,8.09
2019-01-04T23:25:39.657Z,8.05
2019-01-04T23:28:27.482Z,8.04
2019-01-04T23:31:34.506Z,8.02
2019-01-04T23:34:41.596Z,8.01
2019-01-04T23:37:30.012Z,7.98
2019-01-04T23:40:17.980Z,7.92
2019-01-04T23:43:25.020Z,7.89
2019-01-04T23:46:09.764Z,7.88
2019-01-04T23:49:17.018Z,7.89
2019-01-04T23:52:25.498Z,7.91
2019-01-04T23:55:13.394Z,7.83
2019-01-04T23:58:20.507Z,7.85
